sensor_id;sensor_type;location;lat;lon;timestamp;pressure;altitude;pressure_sealevel;temperature;humidity
51261;BME280;61705;46.228;24.812;2023-05-18T00:00:46;97359.81;;;12.25;97.37
51261;BME280;61705;46.228;24.812;2023-05-18T00:03:14;97360.50;;;12.28;97.32
51261;BME280;61705;46.228;24.812;2023-05-18T00:05:40;97361.34;;;12.29;97.21
51261;BME280;61705;46.228;24.812;2023-05-18T00:08:09;97357.06;;;12.26;97.14
51261;BME280;61705;46.228;24.812;2023-05-18T00:10:39;97360.50;;;12.28;97.18
51261;BME280;61705;46.228;24.812;2023-05-18T00:13:11;97364.16;;;12.26;97.34
51261;BME280;61705;46.228;24.812;2023-05-18T00:15:38;97357.75;;;12.30;97.36
51261;BME280;61705;46.228;24.812;2023-05-18T00:18:05;97363.16;;;12.28;97.12
51261;BME280;61705;46.228;24.812;2023-05-18T00:20:32;97353.22;;;12.32;96.94
51261;BME280;61705;46.228;24.812;2023-05-18T00:23:01;97355.28;;;12.27;96.65
51261;BME280;61705;46.228;24.812;2023-05-18T00:25:31;97353.06;;;12.19;96.73
51261;BME280;61705;46.228;24.812;2023-05-18T00:27:58;97353.06;;;12.19;96.85
51261;BME280;61705;46.228;24.812;2023-05-18T00:30:25;97345.91;;;12.21;96.95
51261;BME280;61705;46.228;24.812;2023-05-18T00:32:51;97339.75;;;12.21;96.67
51261;BME280;61705;46.228;24.812;2023-05-18T00:35:23;97345.13;;;12.19;96.62
51261;BME280;61705;46.228;24.812;2023-05-18T00:37:50;97345.41;;;12.15;96.69
51261;BME280;61705;46.228;24.812;2023-05-18T00:40:26;97348.13;;;12.13;97.11
51261;BME280;61705;46.228;24.812;2023-05-18T00:43:12;97345.47;;;12.13;96.98
51261;BME280;61705;46.228;24.812;2023-05-18T00:45:46;97355.22;;;12.13;97.09
51261;BME280;61705;46.228;24.812;2023-05-18T00:48:13;97346.50;;;12.11;97.12
51261;BME280;61705;46.228;24.812;2023-05-18T00:50:39;97345.75;;;12.08;97.36
51261;BME280;61705;46.228;24.812;2023-05-18T00:53:10;97347.44;;;12.09;97.33
51261;BME280;61705;46.228;24.812;2023-05-18T00:55:37;97343.94;;;12.09;97.62
51261;BME280;61705;46.228;24.812;2023-05-18T00:58:04;97343.75;;;12.12;97.38
51261;BME280;61705;46.228;24.812;2023-05-18T01:00:31;97349.16;;;12.11;97.36
51261;BME280;61705;46.228;24.812;2023-05-18T01:02:59;97349.22;;;12.09;97.54
51261;BME280;61705;46.228;24.812;2023-05-18T01:05:27;97352.06;;;12.06;97.72
51261;BME280;61705;46.228;24.812;2023-05-18T01:07:54;97353.59;;;12.10;97.75
51261;BME280;61705;46.228;24.812;2023-05-18T01:10:22;97355.66;;;12.05;97.74
51261;BME280;61705;46.228;24.812;2023-05-18T01:13:04;97352.16;;;12.04;97.90
51261;BME280;61705;46.228;24.812;2023-05-18T01:15:37;97353.78;;;12.07;98.16
51261;BME280;61705;46.228;24.812;2023-05-18T01:18:18;97347.72;;;12.05;98.15
51261;BME280;61705;46.228;24.812;2023-05-18T01:23:28;97358.81;;;12.12;98.51
51261;BME280;61705;46.228;24.812;2023-05-18T01:26:26;97362.25;;;12.14;98.30
51261;BME280;61705;46.228;24.812;2023-05-18T01:28:58;97361.19;;;12.16;98.24
51261;BME280;61705;46.228;24.812;2023-05-18T01:31:26;97358.19;;;12.06;97.80
51261;BME280;61705;46.228;24.812;2023-05-18T01:33:53;97364.28;;;12.08;97.84
51261;BME280;61705;46.228;24.812;2023-05-18T01:36:20;97358.72;;;12.13;97.65
51261;BME280;61705;46.228;24.812;2023-05-18T01:38:47;97361.63;;;12.08;97.87
51261;BME280;61705;46.228;24.812;2023-05-18T01:41:20;97367.59;;;12.12;98.04
51261;BME280;61705;46.228;24.812;2023-05-18T01:43:52;97365.91;;;12.11;97.69
51261;BME280;61705;46.228;24.812;2023-05-18T01:51:53;97366.75;;;12.12;98.05
51261;BME280;61705;46.228;24.812;2023-05-18T01:54:22;97375.47;;;12.14;98.01
51261;BME280;61705;46.228;24.812;2023-05-18T01:56:51;97371.94;;;12.13;98.30
51261;BME280;61705;46.228;24.812;2023-05-18T01:59:19;97378.97;;;12.14;98.45
51261;BME280;61705;46.228;24.812;2023-05-18T02:01:47;97366.47;;;12.16;98.37
51261;BME280;61705;46.228;24.812;2023-05-18T02:04:14;97377.94;;;12.17;98.09
51261;BME280;61705;46.228;24.812;2023-05-18T02:06:41;97374.03;;;12.08;98.23
51261;BME280;61705;46.228;24.812;2023-05-18T02:09:07;97377.19;;;12.15;98.43
51261;BME280;61705;46.228;24.812;2023-05-18T02:11:37;97377.25;;;12.13;98.33
51261;BME280;61705;46.228;24.812;2023-05-18T02:14:04;97383.31;;;12.15;98.19
51261;BME280;61705;46.228;24.812;2023-05-18T02:16:31;97380.56;;;12.17;98.13
51261;BME280;61705;46.228;24.812;2023-05-18T02:18:58;97380.78;;;12.14;98.13
51261;BME280;61705;46.228;24.812;2023-05-18T02:21:25;97384.28;;;12.14;97.88
51261;BME280;61705;46.228;24.812;2023-05-18T02:23:52;97388.00;;;12.10;97.69
51261;BME280;61705;46.228;24.812;2023-05-18T02:26:19;97395.03;;;12.11;97.95
51261;BME280;61705;46.228;24.812;2023-05-18T02:28:46;97387.09;;;12.11;97.95
51261;BME280;61705;46.228;24.812;2023-05-18T02:31:13;97394.03;;;12.14;98.11
51261;BME280;61705;46.228;24.812;2023-05-18T02:33:39;97397.53;;;12.14;97.88
51261;BME280;61705;46.228;24.812;2023-05-18T02:36:13;97392.91;;;12.18;97.74
51261;BME280;61705;46.228;24.812;2023-05-18T02:38:42;97397.25;;;12.19;97.20
51261;BME280;61705;46.228;24.812;2023-05-18T02:41:09;97401.69;;;12.18;97.09
51261;BME280;61705;46.228;24.812;2023-05-18T02:43:36;97392.97;;;12.16;96.94
51261;BME280;61705;46.228;24.812;2023-05-18T02:46:02;97394.03;;;12.14;97.06
51261;BME280;61705;46.228;24.812;2023-05-18T02:48:29;97397.53;;;12.14;97.08
51261;BME280;61705;46.228;24.812;2023-05-18T02:50:56;97401.78;;;12.17;96.98
51261;BME280;61705;46.228;24.812;2023-05-18T02:53:26;97394.09;;;12.12;97.00
51261;BME280;61705;46.228;24.812;2023-05-18T02:55:58;97396.06;;;12.08;97.44
51261;BME280;61705;46.228;24.812;2023-05-18T02:58:31;97394.44;;;12.06;97.59
51261;BME280;61705;46.228;24.812;2023-05-18T03:00:58;97397.94;;;12.06;98.03
51261;BME280;61705;46.228;24.812;2023-05-18T03:03:28;97401.25;;;12.10;98.06
51261;BME280;61705;46.228;24.812;2023-05-18T03:05:58;97404.78;;;12.11;97.89
51261;BME280;61705;46.228;24.812;2023-05-18T03:08:28;97402.31;;;12.07;98.11
51261;BME280;61705;46.228;24.812;2023-05-18T03:10:57;97410.00;;;12.12;98.28
51261;BME280;61705;46.228;24.812;2023-05-18T03:13:24;97395.97;;;12.10;98.13
51261;BME280;61705;46.228;24.812;2023-05-18T03:15:51;97407.16;;;12.15;98.15
51261;BME280;61705;46.228;24.812;2023-05-18T03:18:20;97405.38;;;12.16;98.10
51261;BME280;61705;46.228;24.812;2023-05-18T03:20:50;97408.19;;;12.13;97.87
51261;BME280;61705;46.228;24.812;2023-05-18T03:23:18;97410.94;;;12.11;97.84
51261;BME280;61705;46.228;24.812;2023-05-18T03:25:48;97410.78;;;12.14;97.89
51261;BME280;61705;46.228;24.812;2023-05-18T03:28:19;97412.47;;;12.15;97.72
51261;BME280;61705;46.228;24.812;2023-05-18T03:30:46;97408.03;;;12.16;98.05
51261;BME280;61705;46.228;24.812;2023-05-18T03:33:13;97418.53;;;12.17;97.79
51261;BME280;61705;46.228;24.812;2023-05-18T03:35:40;97414.94;;;12.18;97.94
51261;BME280;61705;46.228;24.812;2023-05-18T03:38:06;97421.19;;;12.17;97.78
51261;BME280;61705;46.228;24.812;2023-05-18T03:40:33;97425.53;;;12.18;97.88
51261;BME280;61705;46.228;24.812;2023-05-18T03:43:00;97419.97;;;12.23;97.83
51261;BME280;61705;46.228;24.812;2023-05-18T03:45:27;97431.41;;;12.23;97.58
51261;BME280;61705;46.228;24.812;2023-05-18T03:47:54;97427.06;;;12.22;97.59
51261;BME280;61705;46.228;24.812;2023-05-18T03:50:23;97435.81;;;12.24;97.69
51261;BME280;61705;46.228;24.812;2023-05-18T03:52:51;97440.16;;;12.25;97.53
51261;BME280;61705;46.228;24.812;2023-05-18T03:55:21;97435.03;;;12.22;97.81
51261;BME280;61705;46.228;24.812;2023-05-18T03:57:48;97442.97;;;12.22;97.75
51261;BME280;61705;46.228;24.812;2023-05-18T04:00:15;97446.22;;;12.27;97.61
51261;BME280;61705;46.228;24.812;2023-05-18T04:02:42;97446.31;;;12.26;97.58
51261;BME280;61705;46.228;24.812;2023-05-18T04:05:12;97439.03;;;12.29;97.25
51261;BME280;61705;46.228;24.812;2023-05-18T04:07:42;97437.34;;;12.28;97.47
51261;BME280;61705;46.228;24.812;2023-05-18T04:10:12;97444.44;;;12.28;97.19
51261;BME280;61705;46.228;24.812;2023-05-18T04:12:39;97436.22;;;12.32;97.25
51261;BME280;61705;46.228;24.812;2023-05-18T04:15:06;97435.78;;;12.40;96.92
51261;BME280;61705;46.228;24.812;2023-05-18T04:17:33;97444.34;;;12.45;96.46
51261;BME280;61705;46.228;24.812;2023-05-18T04:20:01;97449.03;;;12.40;96.36
51261;BME280;61705;46.228;24.812;2023-05-18T04:22:40;97443.72;;;12.40;96.30
51261;BME280;61705;46.228;24.812;2023-05-18T04:25:08;97442.47;;;12.31;96.74
51261;BME280;61705;46.228;24.812;2023-05-18T04:27:39;97454.41;;;12.39;96.72
51261;BME280;61705;46.228;24.812;2023-05-18T04:30:07;97456.13;;;12.40;96.53
51261;BME280;61705;46.228;24.812;2023-05-18T04:32:36;97451.59;;;12.42;96.62
51261;BME280;61705;46.228;24.812;2023-05-18T04:35:04;97458.59;;;12.43;96.62
51261;BME280;61705;46.228;24.812;2023-05-18T04:37:32;97475.28;;;12.45;96.63
51261;BME280;61705;46.228;24.812;2023-05-18T04:40:00;97468.19;;;12.45;96.70
51261;BME280;61705;46.228;24.812;2023-05-18T04:42:33;97471.59;;;12.47;96.68
51261;BME280;61705;46.228;24.812;2023-05-18T04:45:02;97478.25;;;12.54;96.56
51261;BME280;61705;46.228;24.812;2023-05-18T04:47:33;97481.84;;;12.53;96.41
51261;BME280;61705;46.228;24.812;2023-05-18T04:50:01;97481.09;;;12.51;96.42
51261;BME280;61705;46.228;24.812;2023-05-18T04:52:29;97475.78;;;12.51;96.21
51261;BME280;61705;46.228;24.812;2023-05-18T04:54:56;97481.00;;;12.53;96.26
51261;BME280;61705;46.228;24.812;2023-05-18T04:57:25;97487.94;;;12.55;96.19
51261;BME280;61705;46.228;24.812;2023-05-18T04:59:51;97491.25;;;12.59;96.03
51261;BME280;61705;46.228;24.812;2023-05-18T05:02:18;97492.09;;;12.60;95.97
51261;BME280;61705;46.228;24.812;2023-05-18T05:04:47;97492.22;;;12.58;95.96
51261;BME280;61705;46.228;24.812;2023-05-18T05:07:14;97489.34;;;12.61;95.93
51261;BME280;61705;46.228;24.812;2023-05-18T05:09:40;97498.00;;;12.65;95.96
51261;BME280;61705;46.228;24.812;2023-05-18T05:12:10;97497.81;;;12.68;95.89
51261;BME280;61705;46.228;24.812;2023-05-18T05:14:37;97503.13;;;12.68;95.73
51261;BME280;61705;46.228;24.812;2023-05-18T05:17:03;97503.91;;;12.70;95.83
51261;BME280;61705;46.228;24.812;2023-05-18T05:19:31;97510.84;;;12.72;95.82
51261;BME280;61705;46.228;24.812;2023-05-18T05:21:57;97507.41;;;12.70;95.88
51261;BME280;61705;46.228;24.812;2023-05-18T05:24:24;97509.78;;;12.75;95.67
51261;BME280;61705;46.228;24.812;2023-05-18T05:26:51;97510.41;;;12.80;95.51
51261;BME280;61705;46.228;24.812;2023-05-18T05:29:17;97510.22;;;12.83;95.40
51261;BME280;61705;46.228;24.812;2023-05-18T05:31:47;97518.69;;;12.90;95.00
51261;BME280;61705;46.228;24.812;2023-05-18T05:34:14;97512.25;;;12.94;94.70
51261;BME280;61705;46.228;24.812;2023-05-18T05:36:41;97520.59;;;13.02;94.31
51261;BME280;61705;46.228;24.812;2023-05-18T05:39:07;97530.13;;;13.06;94.13
51261;BME280;61705;46.228;24.812;2023-05-18T05:41:34;97524.25;;;13.15;93.79
51261;BME280;61705;46.228;24.812;2023-05-18T05:44:14;97527.03;;;13.14;93.67
51261;BME280;61705;46.228;24.812;2023-05-18T05:46:43;97523.25;;;13.18;93.44
51261;BME280;61705;46.228;24.812;2023-05-18T05:49:11;97525.56;;;13.24;93.15
51261;BME280;61705;46.228;24.812;2023-05-18T05:51:37;97533.75;;;13.35;92.60
51261;BME280;61705;46.228;24.812;2023-05-18T05:54:04;97520.00;;;13.43;91.98
51261;BME280;61705;46.228;24.812;2023-05-18T05:56:31;97519.47;;;13.52;91.62
51261;BME280;61705;46.228;24.812;2023-05-18T05:58:58;97525.16;;;13.60;91.32
51261;BME280;61705;46.228;24.812;2023-05-18T06:01:24;97517.44;;;13.71;90.95
51261;BME280;61705;46.228;24.812;2023-05-18T06:03:53;97520.94;;;13.86;90.65
51261;BME280;61705;46.228;24.812;2023-05-18T06:06:24;97519.91;;;13.89;90.11
51261;BME280;61705;46.228;24.812;2023-05-18T06:08:51;97525.41;;;14.00;89.78
51261;BME280;61705;46.228;24.812;2023-05-18T06:11:17;97527.41;;;14.11;89.09
51261;BME280;61705;46.228;24.812;2023-05-18T06:13:46;97524.19;;;14.20;88.83
51261;BME280;61705;46.228;24.812;2023-05-18T06:16:13;97529.78;;;14.30;88.29
51261;BME280;61705;46.228;24.812;2023-05-18T06:18:39;97531.59;;;14.29;87.51
51261;BME280;61705;46.228;24.812;2023-05-18T06:21:06;97529.63;;;14.45;87.25
51261;BME280;61705;46.228;24.812;2023-05-18T06:23:41;97538.47;;;14.46;86.60
51261;BME280;61705;46.228;24.812;2023-05-18T06:26:08;97533.84;;;14.50;85.92
51261;BME280;61705;46.228;24.812;2023-05-18T06:28:34;97528.72;;;14.61;85.74
51261;BME280;61705;46.228;24.812;2023-05-18T06:31:02;97533.53;;;14.68;85.36
51261;BME280;61705;46.228;24.812;2023-05-18T06:33:30;97529.31;;;14.79;85.03
51261;BME280;61705;46.228;24.812;2023-05-18T06:35:56;97531.91;;;14.80;84.07
51261;BME280;61705;46.228;24.812;2023-05-18T06:38:23;97532.25;;;14.88;83.55
51261;BME280;61705;46.228;24.812;2023-05-18T06:40:50;97542.06;;;15.01;83.26
51261;BME280;61705;46.228;24.812;2023-05-18T06:43:17;97532.47;;;15.25;82.57
51261;BME280;61705;46.228;24.812;2023-05-18T06:45:44;97529.66;;;15.54;82.16
51261;BME280;61705;46.228;24.812;2023-05-18T06:48:12;97535.09;;;15.65;81.09
51261;BME280;61705;46.228;24.812;2023-05-18T06:50:38;97540.03;;;15.71;80.53
51261;BME280;61705;46.228;24.812;2023-05-18T06:53:05;97541.03;;;15.83;79.75
51261;BME280;61705;46.228;24.812;2023-05-18T06:55:32;97542.72;;;15.84;79.42
51261;BME280;61705;46.228;24.812;2023-05-18T06:57:59;97539.97;;;16.11;78.74
51261;BME280;61705;46.228;24.812;2023-05-18T07:00:25;97541.78;;;16.10;78.60
51261;BME280;61705;46.228;24.812;2023-05-18T07:02:52;97545.50;;;16.08;78.09
51261;BME280;61705;46.228;24.812;2023-05-18T07:05:19;97550.94;;;16.19;78.01
51261;BME280;61705;46.228;24.812;2023-05-18T07:07:45;97546.56;;;16.31;77.63
51261;BME280;61705;46.228;24.812;2023-05-18T07:10:13;97550.06;;;16.31;77.97
51261;BME280;61705;46.228;24.812;2023-05-18T07:12:40;97548.97;;;16.34;76.98
51261;BME280;61705;46.228;24.812;2023-05-18T07:15:07;97552.94;;;16.41;76.68
51261;BME280;61705;46.228;24.812;2023-05-18T07:17:33;97550.28;;;16.41;76.31
51261;BME280;61705;46.228;24.812;2023-05-18T07:20:00;97550.88;;;16.57;76.15
51261;BME280;61705;46.228;24.812;2023-05-18T07:22:27;97551.06;;;16.80;75.57
51261;BME280;61705;46.228;24.812;2023-05-18T07:24:53;97547.00;;;17.11;75.28
51261;BME280;61705;46.228;24.812;2023-05-18T07:27:20;97547.03;;;17.22;74.61
51261;BME280;61705;46.228;24.812;2023-05-18T07:29:47;97543.47;;;17.11;73.86
51261;BME280;61705;46.228;24.812;2023-05-18T07:32:13;97538.72;;;17.27;73.33
51261;BME280;61705;46.228;24.812;2023-05-18T07:34:40;97532.41;;;17.04;73.01
51261;BME280;61705;46.228;24.812;2023-05-18T07:37:08;97534.03;;;17.18;73.50
51261;BME280;61705;46.228;24.812;2023-05-18T07:39:35;97535.22;;;17.38;73.25
51261;BME280;61705;46.228;24.812;2023-05-18T07:42:02;97534.91;;;17.53;72.79
51261;BME280;61705;46.228;24.812;2023-05-18T07:44:29;97534.66;;;17.57;72.21
51261;BME280;61705;46.228;24.812;2023-05-18T07:46:57;97525.72;;;17.69;72.34
51261;BME280;61705;46.228;24.812;2023-05-18T07:49:23;97532.38;;;17.63;72.16
51261;BME280;61705;46.228;24.812;2023-05-18T07:51:50;97528.25;;;17.70;71.89
51261;BME280;61705;46.228;24.812;2023-05-18T07:54:20;97522.59;;;17.75;71.51
51261;BME280;61705;46.228;24.812;2023-05-18T07:56:47;97529.44;;;17.79;70.93
51261;BME280;61705;46.228;24.812;2023-05-18T07:59:14;97527.16;;;17.62;71.22
51261;BME280;61705;46.228;24.812;2023-05-18T08:01:41;97528.28;;;17.35;70.95
51261;BME280;61705;46.228;24.812;2023-05-18T08:04:10;97534.44;;;17.24;71.47
51261;BME280;61705;46.228;24.812;2023-05-18T08:06:37;97537.13;;;17.60;71.46
51261;BME280;61705;46.228;24.812;2023-05-18T08:09:06;97526.34;;;17.72;70.93
51261;BME280;61705;46.228;24.812;2023-05-18T08:11:35;97526.75;;;17.79;70.55
51261;BME280;61705;46.228;24.812;2023-05-18T08:14:03;97527.38;;;17.83;69.83
51261;BME280;61705;46.228;24.812;2023-05-18T08:16:29;97518.03;;;17.99;68.71
51261;BME280;61705;46.228;24.812;2023-05-18T08:19:02;97527.41;;;18.05;68.43
51261;BME280;61705;46.228;24.812;2023-05-18T08:21:29;97533.84;;;18.03;67.82
51261;BME280;61705;46.228;24.812;2023-05-18T08:23:56;97519.00;;;18.32;67.03
51261;BME280;61705;46.228;24.812;2023-05-18T08:26:22;97517.56;;;18.51;66.70
51261;BME280;61705;46.228;24.812;2023-05-18T08:28:49;97519.13;;;18.76;65.49
51261;BME280;61705;46.228;24.812;2023-05-18T08:31:20;97521.41;;;18.69;63.60
51261;BME280;61705;46.228;24.812;2023-05-18T08:33:47;97519.97;;;18.76;63.77
51261;BME280;61705;46.228;24.812;2023-05-18T08:36:14;97528.91;;;19.09;62.82
51261;BME280;61705;46.228;24.812;2023-05-18T08:38:42;97524.81;;;18.93;60.83
51261;BME280;61705;46.228;24.812;2023-05-18T08:41:19;97531.25;;;19.34;60.38
51261;BME280;61705;46.228;24.812;2023-05-18T08:44:00;97515.56;;;19.30;60.29
51261;BME280;61705;46.228;24.812;2023-05-18T08:46:35;97518.59;;;19.57;59.99
51261;BME280;61705;46.228;24.812;2023-05-18T08:49:05;97521.22;;;19.80;58.99
51261;BME280;61705;46.228;24.812;2023-05-18T08:51:34;97505.50;;;19.75;54.79
51261;BME280;61705;46.228;24.812;2023-05-18T08:54:02;97516.81;;;19.79;54.26
51261;BME280;61705;46.228;24.812;2023-05-18T08:56:31;97520.94;;;20.13;50.99
51261;BME280;61705;46.228;24.812;2023-05-18T08:59:03;97502.00;;;20.36;50.93
51261;BME280;61705;46.228;24.812;2023-05-18T09:01:33;97500.78;;;20.50;50.46
51261;BME280;61705;46.228;24.812;2023-05-18T09:04:00;97497.38;;;20.88;50.01
51261;BME280;61705;46.228;24.812;2023-05-18T09:06:27;97495.28;;;21.01;48.87
51261;BME280;61705;46.228;24.812;2023-05-18T09:08:55;97501.13;;;21.16;46.66
51261;BME280;61705;46.228;24.812;2023-05-18T09:11:25;97497.41;;;20.98;46.93
51261;BME280;61705;46.228;24.812;2023-05-18T09:13:53;97493.63;;;21.20;46.58
51261;BME280;61705;46.228;24.812;2023-05-18T09:16:20;97491.34;;;20.96;45.34
51261;BME280;61705;46.228;24.812;2023-05-18T09:18:47;97490.63;;;21.23;45.31
51261;BME280;61705;46.228;24.812;2023-05-18T09:21:14;97496.28;;;21.00;43.84
51261;BME280;61705;46.228;24.812;2023-05-18T09:23:42;97491.03;;;20.99;43.35
51261;BME280;61705;46.228;24.812;2023-05-18T09:26:09;97488.78;;;21.33;42.43
51261;BME280;61705;46.228;24.812;2023-05-18T09:28:38;97493.34;;;21.71;41.88
51261;BME280;61705;46.228;24.812;2023-05-18T09:31:16;97490.03;;;21.77;40.79
51261;BME280;61705;46.228;24.812;2023-05-18T09:33:46;97482.88;;;21.39;39.15
51261;BME280;61705;46.228;24.812;2023-05-18T09:36:16;97494.19;;;21.52;39.22
51261;BME280;61705;46.228;24.812;2023-05-18T09:38:51;97491.75;;;21.88;40.20
51261;BME280;61705;46.228;24.812;2023-05-18T09:41:20;97489.72;;;22.00;40.53
51261;BME280;61705;46.228;24.812;2023-05-18T09:43:55;97491.88;;;21.87;39.87
51261;BME280;61705;46.228;24.812;2023-05-18T09:46:22;97495.75;;;22.31;39.30
51261;BME280;61705;46.228;24.812;2023-05-18T09:48:53;97487.41;;;22.24;38.56
51261;BME280;61705;46.228;24.812;2023-05-18T09:51:22;97491.91;;;21.67;38.93
51261;BME280;61705;46.228;24.812;2023-05-18T09:53:56;97496.72;;;21.73;39.55
51261;BME280;61705;46.228;24.812;2023-05-18T09:56:24;97488.00;;;22.09;38.78
51261;BME280;61705;46.228;24.812;2023-05-18T09:58:52;97496.28;;;22.35;38.75
51261;BME280;61705;46.228;24.812;2023-05-18T10:01:19;97496.44;;;22.33;37.78
51261;BME280;61705;46.228;24.812;2023-05-18T10:03:48;97498.19;;;22.15;38.32
51261;BME280;61705;46.228;24.812;2023-05-18T10:06:15;97508.94;;;22.24;38.57
51261;BME280;61705;46.228;24.812;2023-05-18T10:08:46;97495.06;;;22.57;38.33
51261;BME280;61705;46.228;24.812;2023-05-18T10:11:16;97506.16;;;22.54;37.95
51261;BME280;61705;46.228;24.812;2023-05-18T10:13:44;97512.41;;;22.44;38.32
51261;BME280;61705;46.228;24.812;2023-05-18T10:16:14;97505.91;;;22.75;37.57
51261;BME280;61705;46.228;24.812;2023-05-18T10:18:41;97509.78;;;22.25;37.83
51261;BME280;61705;46.228;24.812;2023-05-18T10:21:08;97512.59;;;22.33;37.05
51261;BME280;61705;46.228;24.812;2023-05-18T10:23:39;97504.16;;;22.46;36.20
51261;BME280;61705;46.228;24.812;2023-05-18T10:26:06;97510.00;;;22.41;35.67
51261;BME280;61705;46.228;24.812;2023-05-18T10:28:44;97514.00;;;22.37;36.36
51261;BME280;61705;46.228;24.812;2023-05-18T10:31:18;97516.00;;;22.63;36.63
51261;BME280;61705;46.228;24.812;2023-05-18T10:33:49;97515.09;;;22.44;36.66
51261;BME280;61705;46.228;24.812;2023-05-18T10:36:17;97511.25;;;22.57;36.53
51261;BME280;61705;46.228;24.812;2023-05-18T10:38:45;97511.91;;;22.59;36.10
51261;BME280;61705;46.228;24.812;2023-05-18T10:41:13;97516.63;;;22.84;35.99
51261;BME280;61705;46.228;24.812;2023-05-18T10:43:40;97502.13;;;22.85;35.09
51261;BME280;61705;46.228;24.812;2023-05-18T10:46:08;97501.84;;;23.16;34.91
51261;BME280;61705;46.228;24.812;2023-05-18T10:48:38;97508.41;;;23.49;33.07
51261;BME280;61705;46.228;24.812;2023-05-18T10:51:11;97491.13;;;23.60;33.29
51261;BME280;61705;46.228;24.812;2023-05-18T10:53:41;97492.03;;;23.51;33.45
51261;BME280;61705;46.228;24.812;2023-05-18T10:56:09;97497.13;;;23.54;32.40
51261;BME280;61705;46.228;24.812;2023-05-18T10:58:36;97500.00;;;23.52;31.69
51261;BME280;61705;46.228;24.812;2023-05-18T11:01:07;97499.44;;;23.13;31.35
51261;BME280;61705;46.228;24.812;2023-05-18T11:03:37;97497.97;;;23.36;30.87
51261;BME280;61705;46.228;24.812;2023-05-18T11:06:11;97503.44;;;23.62;30.61
51261;BME280;61705;46.228;24.812;2023-05-18T11:08:47;97498.84;;;23.73;30.12
51261;BME280;61705;46.228;24.812;2023-05-18T11:11:15;97496.03;;;23.64;30.56
51261;BME280;61705;46.228;24.812;2023-05-18T11:13:49;97501.19;;;23.76;30.13
51261;BME280;61705;46.228;24.812;2023-05-18T11:16:17;97495.56;;;23.87;29.96
51261;BME280;61705;46.228;24.812;2023-05-18T11:18:49;97506.06;;;23.90;30.04
51261;BME280;61705;46.228;24.812;2023-05-18T11:24:31;97496.03;;;23.64;28.88
51261;BME280;61705;46.228;24.812;2023-05-18T11:27:00;97496.28;;;23.71;29.69
51261;BME280;61705;46.228;24.812;2023-05-18T11:29:39;97491.59;;;23.20;29.63
51261;BME280;61705;46.228;24.812;2023-05-18T11:32:28;97499.91;;;23.80;29.17
51261;BME280;61705;46.228;24.812;2023-05-18T11:34:58;97499.06;;;23.26;29.58
51261;BME280;61705;46.228;24.812;2023-05-18T11:40:10;97495.00;;;24.01;27.83
51261;BME280;61705;46.228;24.812;2023-05-18T11:42:39;97499.38;;;24.28;28.21
51261;BME280;61705;46.228;24.812;2023-05-18T11:45:10;97508.81;;;24.24;28.38
51261;BME280;61705;46.228;24.812;2023-05-18T11:47:38;97504.63;;;24.04;28.42
51261;BME280;61705;46.228;24.812;2023-05-18T11:50:08;97501.75;;;24.31;28.97
51261;BME280;61705;46.228;24.812;2023-05-18T11:52:46;97513.97;;;24.70;28.54
51261;BME280;61705;46.228;24.812;2023-05-18T11:55:14;97518.44;;;24.53;28.18
51261;BME280;61705;46.228;24.812;2023-05-18T11:57:42;97514.31;;;24.75;28.07
51261;BME280;61705;46.228;24.812;2023-05-18T12:00:11;97512.31;;;24.85;28.28
51261;BME280;61705;46.228;24.812;2023-05-18T12:02:42;97517.06;;;24.83;27.79
51261;BME280;61705;46.228;24.812;2023-05-18T12:05:10;97509.16;;;24.98;27.80
51261;BME280;61705;46.228;24.812;2023-05-18T12:07:39;97492.72;;;24.83;27.78
51261;BME280;61705;46.228;24.812;2023-05-18T12:10:10;97497.31;;;24.99;28.14
51261;BME280;61705;46.228;24.812;2023-05-18T12:12:38;97502.59;;;25.00;28.70
51261;BME280;61705;46.228;24.812;2023-05-18T12:15:07;97503.75;;;24.29;29.68
51261;BME280;61705;46.228;24.812;2023-05-18T12:17:47;97508.88;;;24.67;29.38
51261;BME280;61705;46.228;24.812;2023-05-18T12:20:16;97516.84;;;24.16;29.92
51261;BME280;61705;46.228;24.812;2023-05-18T12:22:47;97522.56;;;24.13;29.83
51261;BME280;61705;46.228;24.812;2023-05-18T12:25:20;97510.94;;;24.73;29.58
51261;BME280;61705;46.228;24.812;2023-05-18T12:27:48;97511.31;;;24.86;29.65
51261;BME280;61705;46.228;24.812;2023-05-18T12:32:46;97503.69;;;25.32;29.06
51261;BME280;61705;46.228;24.812;2023-05-18T12:35:13;97503.69;;;25.24;29.20
51261;BME280;61705;46.228;24.812;2023-05-18T12:37:44;97498.75;;;25.19;29.11
51261;BME280;61705;46.228;24.812;2023-05-18T12:40:16;97500.84;;;25.74;28.61
51261;BME280;61705;46.228;24.812;2023-05-18T12:42:57;97504.06;;;24.95;29.14
51261;BME280;61705;46.228;24.812;2023-05-18T12:45:30;97500.56;;;24.34;30.38
51261;BME280;61705;46.228;24.812;2023-05-18T12:50:31;97507.06;;;24.15;29.70
51261;BME280;61705;46.228;24.812;2023-05-18T12:52:59;97496.09;;;23.91;29.84
51261;BME280;61705;46.228;24.812;2023-05-18T12:55:28;97496.66;;;25.05;28.40
51261;BME280;61705;46.228;24.812;2023-05-18T12:58:15;97486.44;;;25.33;28.32
51261;BME280;61705;46.228;24.812;2023-05-18T13:00:48;97491.25;;;25.05;28.86
51261;BME280;61705;46.228;24.812;2023-05-18T13:03:16;97494.44;;;24.92;28.47
51261;BME280;61705;46.228;24.812;2023-05-18T13:05:45;97484.09;;;25.38;28.53
51261;BME280;61705;46.228;24.812;2023-05-18T13:08:18;97482.09;;;25.89;27.82
51261;BME280;61705;46.228;24.812;2023-05-18T13:10:47;97487.38;;;26.38;26.86
51261;BME280;61705;46.228;24.812;2023-05-18T13:13:31;97490.88;;;25.99;27.04
51261;BME280;61705;46.228;24.812;2023-05-18T13:15:58;97493.41;;;25.68;27.43
51261;BME280;61705;46.228;24.812;2023-05-18T13:18:26;97487.63;;;25.63;27.44